sensor_id;sensor_type;location;lat;lon;timestamp;pressure;altitude;pressure_sealevel;temperature;humidity
72438;BME280;60444;43.534;-5.674;2023-01-08T00:02:16;101257.19;;;13.39;100.00
72438;BME280;60444;43.534;-5.674;2023-01-08T00:04:41;101259.13;;;13.37;100.00
72438;BME280;60444;43.534;-5.674;2023-01-08T00:07:08;101275.03;;;13.44;100.00
72438;BME280;60444;43.534;-5.674;2023-01-08T00:09:33;101257.34;;;13.36;100.00
72438;BME280;60444;43.534;-5.674;2023-01-08T00:11:59;101271.59;;;13.41;100.00
72438;BME280;60444;43.534;-5.674;2023-01-08T00:14:24;101262.94;;;13.33;100.00
72438;BME280;60444;43.534;-5.674;2023-01-08T00:16:50;101244.34;;;13.25;100.00
72438;BME280;60444;43.534;-5.674;2023-01-08T00:19:16;101256.50;;;13.35;100.00
72438;BME280;60444;43.534;-5.674;2023-01-08T00:21:41;101239.78;;;13.26;100.00
72438;BME280;60444;43.534;-5.674;2023-01-08T00:24:07;101247.13;;;13.24;100.00
72438;BME280;60444;43.534;-5.674;2023-01-08T00:26:32;101237.25;;;13.23;100.00
72438;BME280;60444;43.534;-5.674;2023-01-08T00:28:58;101245.41;;;13.23;100.00
72438;BME280;60444;43.534;-5.674;2023-01-08T00:31:23;101255.13;;;13.27;100.00
72438;BME280;60444;43.534;-5.674;2023-01-08T00:33:49;101230.31;;;13.17;100.00
72438;BME280;60444;43.534;-5.674;2023-01-08T00:36:16;101253.53;;;13.23;100.00
72438;BME280;60444;43.534;-5.674;2023-01-08T00:38:43;101236.75;;;13.15;100.00
72438;BME280;60444;43.534;-5.674;2023-01-08T00:41:09;101249.22;;;13.19;100.00
72438;BME280;60444;43.534;-5.674;2023-01-08T00:43:36;101237.06;;;13.09;100.00
72438;BME280;60444;43.534;-5.674;2023-01-08T00:46:01;101238.13;;;13.06;100.00
72438;BME280;60444;43.534;-5.674;2023-01-08T00:48:27;101251.63;;;13.08;100.00
72438;BME280;60444;43.534;-5.674;2023-01-08T00:50:53;101242.91;;;13.01;100.00
72438;BME280;60444;43.534;-5.674;2023-01-08T00:53:20;101243.47;;;13.08;100.00
72438;BME280;60444;43.534;-5.674;2023-01-08T00:55:46;101251.78;;;13.05;100.00
72438;BME280;60444;43.534;-5.674;2023-01-08T00:58:12;101249.19;;;13.02;100.00
72438;BME280;60444;43.534;-5.674;2023-01-08T01:00:38;101245.56;;;13.03;100.00
72438;BME280;60444;43.534;-5.674;2023-01-08T01:03:04;101228.59;;;12.98;100.00
72438;BME280;60444;43.534;-5.674;2023-01-08T01:05:30;101228.75;;;12.95;100.00
72438;BME280;60444;43.534;-5.674;2023-01-08T01:07:56;101238.00;;;12.91;100.00
72438;BME280;60444;43.534;-5.674;2023-01-08T01:10:22;101223.16;;;12.81;100.00
72438;BME280;60444;43.534;-5.674;2023-01-08T01:12:48;101248.00;;;12.90;100.00
72438;BME280;60444;43.534;-5.674;2023-01-08T01:15:16;101240.88;;;12.88;100.00
72438;BME280;60444;43.534;-5.674;2023-01-08T01:17:43;101234.66;;;12.86;100.00
72438;BME280;60444;43.534;-5.674;2023-01-08T01:20:12;101242.97;;;12.83;100.00
72438;BME280;60444;43.534;-5.674;2023-01-08T01:22:38;101227.31;;;12.71;100.00
72438;BME280;60444;43.534;-5.674;2023-01-08T01:25:04;101213.97;;;12.66;100.00
72438;BME280;60444;43.534;-5.674;2023-01-08T01:27:29;101217.78;;;12.62;100.00
72438;BME280;60444;43.534;-5.674;2023-01-08T01:29:55;101221.22;;;12.66;100.00
72438;BME280;60444;43.534;-5.674;2023-01-08T01:32:20;101222.81;;;12.70;100.00
72438;BME280;60444;43.534;-5.674;2023-01-08T01:34:46;101207.91;;;12.61;100.00
72438;BME280;60444;43.534;-5.674;2023-01-08T01:37:12;101211.63;;;12.59;100.00
72438;BME280;60444;43.534;-5.674;2023-01-08T01:39:39;101219.63;;;12.62;100.00
72438;BME280;60444;43.534;-5.674;2023-01-08T01:42:05;101228.59;;;12.64;100.00
72438;BME280;60444;43.534;-5.674;2023-01-08T01:44:38;101238.47;;;12.65;100.00
72438;BME280;60444;43.534;-5.674;2023-01-08T01:47:41;101228.97;;;12.56;100.00
72438;BME280;60444;43.534;-5.674;2023-01-08T01:50:22;101232.53;;;12.57;100.00
72438;BME280;60444;43.534;-5.674;2023-01-08T01:55:25;101212.25;;;12.46;100.00
72438;BME280;60444;43.534;-5.674;2023-01-08T01:58:01;101221.19;;;12.48;100.00
72438;BME280;60444;43.534;-5.674;2023-01-08T02:00:28;101207.03;;;12.42;100.00
72438;BME280;60444;43.534;-5.674;2023-01-08T02:02:54;101217.69;;;12.46;100.00
72438;BME280;60444;43.534;-5.674;2023-01-08T02:05:22;101217.59;;;12.48;100.00
72438;BME280;60444;43.534;-5.674;2023-01-08T02:08:17;101218.50;;;12.48;100.00
72438;BME280;60444;43.534;-5.674;2023-01-08T02:11:09;101216.78;;;12.46;100.00
72438;BME280;60444;43.534;-5.674;2023-01-08T02:13:38;101199.00;;;12.40;100.00
72438;BME280;60444;43.534;-5.674;2023-01-08T02:16:25;101202.50;;;12.42;100.00
72438;BME280;60444;43.534;-5.674;2023-01-08T02:18:58;101197.41;;;12.36;100.00
72438;BME280;60444;43.534;-5.674;2023-01-08T02:21:43;101204.59;;;12.37;100.00
72438;BME280;60444;43.534;-5.674;2023-01-08T02:27:33;101191.31;;;12.31;100.00
72438;BME280;60444;43.534;-5.674;2023-01-08T02:30:02;101189.50;;;12.32;100.00
72438;BME280;60444;43.534;-5.674;2023-01-08T02:32:35;101163.94;;;12.19;100.00
72438;BME280;60444;43.534;-5.674;2023-01-08T02:35:02;101170.88;;;12.24;100.00
72438;BME280;60444;43.534;-5.674;2023-01-08T02:37:28;101166.19;;;12.28;100.00
72438;BME280;60444;43.534;-5.674;2023-01-08T02:40:02;101181.28;;;12.33;100.00
72438;BME280;60444;43.534;-5.674;2023-01-08T02:47:44;101176.91;;;12.31;100.00
72438;BME280;60444;43.534;-5.674;2023-01-08T02:53:17;101174.41;;;12.26;100.00
72438;BME280;60444;43.534;-5.674;2023-01-08T02:55:48;101165.78;;;12.18;100.00
72438;BME280;60444;43.534;-5.674;2023-01-08T02:58:16;101165.72;;;12.20;100.00
72438;BME280;60444;43.534;-5.674;2023-01-08T03:00:43;101170.31;;;12.18;100.00
72438;BME280;60444;43.534;-5.674;2023-01-08T03:03:26;101172.88;;;12.21;100.00
72438;BME280;60444;43.534;-5.674;2023-01-08T03:05:58;101164.00;;;12.17;100.00
72438;BME280;60444;43.534;-5.674;2023-01-08T03:08:25;101160.50;;;12.15;100.00
72438;BME280;60444;43.534;-5.674;2023-01-08T03:11:02;101166.50;;;12.22;100.00
72438;BME280;60444;43.534;-5.674;2023-01-08T03:16:35;101133.38;;;12.15;100.00
72438;BME280;60444;43.534;-5.674;2023-01-08T03:19:08;101123.63;;;12.11;100.00
72438;BME280;60444;43.534;-5.674;2023-01-08T03:21:36;101129.81;;;12.15;100.00
72438;BME280;60444;43.534;-5.674;2023-01-08T03:24:03;101129.66;;;12.18;100.00
72438;BME280;60444;43.534;-5.674;2023-01-08T03:26:31;101111.84;;;12.12;100.00
72438;BME280;60444;43.534;-5.674;2023-01-08T03:28:58;101119.50;;;12.21;100.00
72438;BME280;60444;43.534;-5.674;2023-01-08T03:31:26;101130.44;;;12.20;100.00
72438;BME280;60444;43.534;-5.674;2023-01-08T03:33:53;101129.47;;;12.21;100.00
72438;BME280;60444;43.534;-5.674;2023-01-08T03:36:23;101121.50;;;12.18;100.00
72438;BME280;60444;43.534;-5.674;2023-01-08T03:38:55;101120.47;;;12.20;100.00
72438;BME280;60444;43.534;-5.674;2023-01-08T03:41:23;101084.72;;;12.12;100.00
72438;BME280;60444;43.534;-5.674;2023-01-08T03:43:51;101080.91;;;12.16;100.00
72438;BME280;60444;43.534;-5.674;2023-01-08T03:46:22;101079.13;;;12.15;100.00
72438;BME280;60444;43.534;-5.674;2023-01-08T03:48:50;101075.41;;;12.18;100.00
72438;BME280;60444;43.534;-5.674;2023-01-08T03:51:16;101061.25;;;12.11;100.00
72438;BME280;60444;43.534;-5.674;2023-01-08T03:53:43;101069.41;;;12.11;100.00
72438;BME280;60444;43.534;-5.674;2023-01-08T03:56:08;101034.06;;;11.96;100.00
72438;BME280;60444;43.534;-5.674;2023-01-08T03:58:35;101047.72;;;12.11;100.00
72438;BME280;60444;43.534;-5.674;2023-01-08T04:01:00;101011.38;;;11.98;100.00
72438;BME280;60444;43.534;-5.674;2023-01-08T04:03:26;101035.03;;;12.12;100.00
72438;BME280;60444;43.534;-5.674;2023-01-08T04:05:51;101016.44;;;12.04;100.00
72438;BME280;60444;43.534;-5.674;2023-01-08T04:08:17;101019.66;;;12.12;100.00
72438;BME280;60444;43.534;-5.674;2023-01-08T04:10:42;101006.19;;;12.11;100.00
72438;BME280;60444;43.534;-5.674;2023-01-08T04:13:08;100999.88;;;12.10;100.00
72438;BME280;60444;43.534;-5.674;2023-01-08T04:15:33;100987.75;;;12.17;100.00
72438;BME280;60444;43.534;-5.674;2023-01-08T04:17:59;100971.97;;;12.08;100.00
72438;BME280;60444;43.534;-5.674;2023-01-08T04:20:24;100968.34;;;12.08;100.00
72438;BME280;60444;43.534;-5.674;2023-01-08T04:22:50;100978.19;;;12.10;100.00
72438;BME280;60444;43.534;-5.674;2023-01-08T04:25:15;100992.44;;;12.14;100.00
72438;BME280;60444;43.534;-5.674;2023-01-08T04:27:41;100987.13;;;12.12;100.00
72438;BME280;60444;43.534;-5.674;2023-01-08T04:30:07;100985.19;;;12.14;100.00
72438;BME280;60444;43.534;-5.674;2023-01-08T04:32:33;100981.06;;;12.07;100.00
72438;BME280;60444;43.534;-5.674;2023-01-08T04:34:58;100976.66;;;12.05;100.00
72438;BME280;60444;43.534;-5.674;2023-01-08T04:37:24;100974.66;;;12.08;100.00
72438;BME280;60444;43.534;-5.674;2023-01-08T04:39:49;100970.31;;;12.06;100.00
72438;BME280;60444;43.534;-5.674;2023-01-08T04:42:15;100964.00;;;12.05;100.00
72438;BME280;60444;43.534;-5.674;2023-01-08T04:44:40;100957.78;;;12.03;100.00
72438;BME280;60444;43.534;-5.674;2023-01-08T04:47:05;100942.63;;;11.99;100.00
72438;BME280;60444;43.534;-5.674;2023-01-08T04:49:31;100938.25;;;11.97;100.00
72438;BME280;60444;43.534;-5.674;2023-01-08T04:51:56;100940.72;;;12.01;100.00
72438;BME280;60444;43.534;-5.674;2023-01-08T04:54:22;100947.00;;;12.02;100.00
72438;BME280;60444;43.534;-5.674;2023-01-08T04:56:51;100939.34;;;12.10;100.00
72438;BME280;60444;43.534;-5.674;2023-01-08T04:59:16;100928.88;;;12.02;100.00
72438;BME280;60444;43.534;-5.674;2023-01-08T05:01:42;100920.75;;;12.02;100.00
72438;BME280;60444;43.534;-5.674;2023-01-08T05:04:09;100932.09;;;12.10;100.00
72438;BME280;60444;43.534;-5.674;2023-01-08T05:06:35;100931.13;;;12.11;100.00
72438;BME280;60444;43.534;-5.674;2023-01-08T05:09:01;100911.19;;;12.12;100.00
72438;BME280;60444;43.534;-5.674;2023-01-08T05:11:26;100909.41;;;12.11;100.00
72438;BME280;60444;43.534;-5.674;2023-01-08T05:13:52;100894.31;;;12.07;100.00
72438;BME280;60444;43.534;-5.674;2023-01-08T05:16:18;100895.94;;;12.10;100.00
72438;BME280;60444;43.534;-5.674;2023-01-08T05:18:44;100888.78;;;12.09;100.00
72438;BME280;60444;43.534;-5.674;2023-01-08T05:21:10;100871.97;;;12.02;100.00
72438;BME280;60444;43.534;-5.674;2023-01-08T05:23:36;100856.03;;;11.96;100.00
72438;BME280;60444;43.534;-5.674;2023-01-08T05:26:03;100835.75;;;11.88;100.00
72438;BME280;60444;43.534;-5.674;2023-01-08T05:28:29;100842.31;;;11.99;100.00
72438;BME280;60444;43.534;-5.674;2023-01-08T05:30:55;100859.19;;;12.04;100.00
72438;BME280;60444;43.534;-5.674;2023-01-08T05:33:21;100845.03;;;11.99;100.00
72438;BME280;60444;43.534;-5.674;2023-01-08T05:35:47;100829.09;;;11.93;100.00
72438;BME280;60444;43.534;-5.674;2023-01-08T05:38:13;100838.00;;;11.95;100.00
72438;BME280;60444;43.534;-5.674;2023-01-08T05:40:39;100847.66;;;12.01;100.00
72438;BME280;60444;43.534;-5.674;2023-01-08T05:43:05;100841.69;;;11.94;100.00
72438;BME280;60444;43.534;-5.674;2023-01-08T05:45:31;100824.25;;;11.83;100.00
72438;BME280;60444;43.534;-5.674;2023-01-08T05:47:57;100860.41;;;11.99;100.00
72438;BME280;60444;43.534;-5.674;2023-01-08T05:50:23;100843.88;;;11.88;100.00
72438;BME280;60444;43.534;-5.674;2023-01-08T05:52:48;100842.00;;;11.88;100.00
72438;BME280;60444;43.534;-5.674;2023-01-08T05:55:14;100859.06;;;11.90;100.00
72438;BME280;60444;43.534;-5.674;2023-01-08T05:57:39;100849.34;;;11.86;100.00
72438;BME280;60444;43.534;-5.674;2023-01-08T06:00:06;100826.97;;;11.83;100.00
72438;BME280;60444;43.534;-5.674;2023-01-08T06:02:32;100852.63;;;11.93;100.00
72438;BME280;60444;43.534;-5.674;2023-01-08T06:04:58;100846.59;;;11.88;100.00
72438;BME280;60444;43.534;-5.674;2023-01-08T06:07:24;100847.28;;;11.91;100.00
72438;BME280;60444;43.534;-5.674;2023-01-08T06:09:49;100840.81;;;11.94;100.00
72438;BME280;60444;43.534;-5.674;2023-01-08T06:12:15;100838.81;;;11.97;100.00
72438;BME280;60444;43.534;-5.674;2023-01-08T06:14:41;100821.22;;;11.89;100.00
72438;BME280;60444;43.534;-5.674;2023-01-08T06:17:06;100820.94;;;11.93;100.00
72438;BME280;60444;43.534;-5.674;2023-01-08T06:19:32;100832.44;;;11.98;100.00
72438;BME280;60444;43.534;-5.674;2023-01-08T06:21:57;100814.91;;;11.88;100.00
72438;BME280;60444;43.534;-5.674;2023-01-08T06:24:23;100814.91;;;11.88;100.00
72438;BME280;60444;43.534;-5.674;2023-01-08T06:26:48;100832.69;;;11.94;100.00
72438;BME280;60444;43.534;-5.674;2023-01-08T06:29:14;100812.28;;;11.87;100.00
72438;BME280;60444;43.534;-5.674;2023-01-08T06:31:39;100809.59;;;11.87;100.00
72438;BME280;60444;43.534;-5.674;2023-01-08T06:34:05;100827.16;;;11.95;100.00
72438;BME280;60444;43.534;-5.674;2023-01-08T06:36:30;100808.56;;;11.89;100.00
72438;BME280;60444;43.534;-5.674;2023-01-08T06:38:56;100808.00;;;11.83;100.00
72438;BME280;60444;43.534;-5.674;2023-01-08T06:41:21;100810.47;;;11.87;100.00
72438;BME280;60444;43.534;-5.674;2023-01-08T06:43:47;100814.78;;;11.91;100.00
72438;BME280;60444;43.534;-5.674;2023-01-08T06:46:12;100803.28;;;11.86;100.00
72438;BME280;60444;43.534;-5.674;2023-01-08T06:48:39;100822.81;;;11.93;100.00
72438;BME280;60444;43.534;-5.674;2023-01-08T06:51:04;100813.00;;;11.90;100.00
72438;BME280;60444;43.534;-5.674;2023-01-08T06:53:30;100818.25;;;11.93;100.00
72438;BME280;60444;43.534;-5.674;2023-01-08T06:55:56;100814.28;;;11.83;100.00
72438;BME280;60444;43.534;-5.674;2023-01-08T06:58:23;100843.69;;;11.91;100.00
72438;BME280;60444;43.534;-5.674;2023-01-08T07:00:49;100849.34;;;11.86;100.00
72438;BME280;60444;43.534;-5.674;2023-01-08T07:03:15;100857.47;;;11.86;100.00
72438;BME280;60444;43.534;-5.674;2023-01-08T07:05:41;100864.50;;;11.90;100.00
72438;BME280;60444;43.534;-5.674;2023-01-08T07:08:14;100864.59;;;11.89;100.00
72438;BME280;60444;43.534;-5.674;2023-01-08T07:10:40;100876.13;;;11.92;100.00
72438;BME280;60444;43.534;-5.674;2023-01-08T07:13:05;100843.00;;;11.87;100.00
72438;BME280;60444;43.534;-5.674;2023-01-08T07:15:38;100818.91;;;11.81;100.00
72438;BME280;60444;43.534;-5.674;2023-01-08T07:18:04;100823.31;;;11.84;100.00
72438;BME280;60444;43.534;-5.674;2023-01-08T07:20:31;100831.19;;;11.88;100.00
72438;BME280;60444;43.534;-5.674;2023-01-08T07:23:04;100822.34;;;11.85;100.00
72438;BME280;60444;43.534;-5.674;2023-01-08T07:25:31;100822.09;;;11.89;100.00
72438;BME280;60444;43.534;-5.674;2023-01-08T07:27:57;100805.28;;;11.83;100.00
72438;BME280;60444;43.534;-5.674;2023-01-08T07:30:23;100782.75;;;11.82;100.00
72438;BME280;60444;43.534;-5.674;2023-01-08T07:32:48;100767.91;;;11.89;100.00
72438;BME280;60444;43.534;-5.674;2023-01-08T07:35:14;100756.59;;;11.81;100.00
72438;BME280;60444;43.534;-5.674;2023-01-08T07:37:40;100778.75;;;11.89;100.00
72438;BME280;60444;43.534;-5.674;2023-01-08T07:40:10;100762.63;;;11.86;100.00
72438;BME280;60444;43.534;-5.674;2023-01-08T07:42:37;100753.88;;;11.81;100.00
72438;BME280;60444;43.534;-5.674;2023-01-08T07:45:03;100754.34;;;11.89;100.00
72438;BME280;60444;43.534;-5.674;2023-01-08T07:47:29;100756.41;;;11.84;100.00
72438;BME280;60444;43.534;-5.674;2023-01-08T07:49:54;100744.00;;;11.80;100.00
72438;BME280;60444;43.534;-5.674;2023-01-08T07:52:21;100746.53;;;11.83;100.00
72438;BME280;60444;43.534;-5.674;2023-01-08T07:54:46;100749.16;;;11.85;100.00
72438;BME280;60444;43.534;-5.674;2023-01-08T07:57:12;100764.53;;;11.84;100.00
72438;BME280;60444;43.534;-5.674;2023-01-08T07:59:37;100750.13;;;11.84;100.00
72438;BME280;60444;43.534;-5.674;2023-01-08T08:02:03;100734.72;;;11.84;100.00
72438;BME280;60444;43.534;-5.674;2023-01-08T08:04:28;100712.34;;;11.81;100.00
72438;BME280;60444;43.534;-5.674;2023-01-08T08:06:54;100715.41;;;11.75;100.00
72438;BME280;60444;43.534;-5.674;2023-01-08T08:09:19;100708.50;;;11.69;100.00
72438;BME280;60444;43.534;-5.674;2023-01-08T08:11:45;100736.13;;;11.76;100.00
72438;BME280;60444;43.534;-5.674;2023-01-08T08:14:11;100745.47;;;11.70;100.00
72438;BME280;60444;43.534;-5.674;2023-01-08T08:16:36;100781.34;;;11.75;100.00
72438;BME280;60444;43.534;-5.674;2023-01-08T08:19:02;100768.91;;;11.71;100.00
72438;BME280;60444;43.534;-5.674;2023-01-08T08:21:28;100775.44;;;11.67;100.00
72438;BME280;60444;43.534;-5.674;2023-01-08T08:23:54;100776.94;;;11.73;100.00
72438;BME280;60444;43.534;-5.674;2023-01-08T08:26:20;100759.00;;;11.70;100.00
72438;BME280;60444;43.534;-5.674;2023-01-08T08:28:45;100739.66;;;11.61;100.00
72438;BME280;60444;43.534;-5.674;2023-01-08T08:31:11;100736.84;;;11.62;100.00
72438;BME280;60444;43.534;-5.674;2023-01-08T08:33:36;100743.63;;;11.71;100.00
72438;BME280;60444;43.534;-5.674;2023-01-08T08:36:02;100751.06;;;11.83;100.00
72438;BME280;60444;43.534;-5.674;2023-01-08T08:38:27;100747.56;;;11.81;100.00
72438;BME280;60444;43.534;-5.674;2023-01-08T08:40:53;100754.84;;;11.80;100.00
72438;BME280;60444;43.534;-5.674;2023-01-08T08:43:19;100758.06;;;11.71;100.00
72438;BME280;60444;43.534;-5.674;2023-01-08T08:45:44;100767.69;;;11.77;100.00
72438;BME280;60444;43.534;-5.674;2023-01-08T08:48:10;100762.97;;;11.80;100.00
72438;BME280;60444;43.534;-5.674;2023-01-08T08:50:36;100747.31;;;11.70;100.00
72438;BME280;60444;43.534;-5.674;2023-01-08T08:53:03;100747.66;;;11.79;100.00
72438;BME280;60444;43.534;-5.674;2023-01-08T08:55:29;100747.66;;;11.79;100.00
72438;BME280;60444;43.534;-5.674;2023-01-08T08:58:05;100748.81;;;11.75;100.00
72438;BME280;60444;43.534;-5.674;2023-01-08T09:00:31;100751.06;;;11.67;100.00
72438;BME280;60444;43.534;-5.674;2023-01-08T09:02:56;100764.34;;;11.72;100.00
72438;BME280;60444;43.534;-5.674;2023-01-08T09:05:22;100729.28;;;11.69;100.00
72438;BME280;60444;43.534;-5.674;2023-01-08T09:07:47;100737.19;;;11.73;100.00
72438;BME280;60444;43.534;-5.674;2023-01-08T09:10:13;100733.50;;;11.74;100.00
72438;BME280;60444;43.534;-5.674;2023-01-08T09:12:38;100738.59;;;11.80;100.00
72438;BME280;60444;43.534;-5.674;2023-01-08T09:15:04;100713.66;;;11.74;100.00
72438;BME280;60444;43.534;-5.674;2023-01-08T09:17:30;100732.28;;;11.80;100.00
72438;BME280;60444;43.534;-5.674;2023-01-08T09:19:55;100747.94;;;11.75;100.00
72438;BME280;60444;43.534;-5.674;2023-01-08T09:22:21;100768.22;;;11.83;100.00
72438;BME280;60444;43.534;-5.674;2023-01-08T09:24:46;100749.44;;;11.80;100.00
72438;BME280;60444;43.534;-5.674;2023-01-08T09:27:12;100746.72;;;11.80;100.00
72438;BME280;60444;43.534;-5.674;2023-01-08T09:29:38;100761.06;;;11.82;100.00
72438;BME280;60444;43.534;-5.674;2023-01-08T09:32:07;100744.94;;;11.79;100.00
72438;BME280;60444;43.534;-5.674;2023-01-08T09:34:33;100766.47;;;11.82;100.00
72438;BME280;60444;43.534;-5.674;2023-01-08T09:37:00;100761.38;;;11.76;100.00
72438;BME280;60444;43.534;-5.674;2023-01-08T09:39:26;100762.63;;;11.86;100.00
72438;BME280;60444;43.534;-5.674;2023-01-08T09:41:52;100752.66;;;11.87;100.00
72438;BME280;60444;43.534;-5.674;2023-01-08T09:44:23;100734.91;;;11.81;100.00
72438;BME280;60444;43.534;-5.674;2023-01-08T09:46:53;100746.34;;;11.86;100.00
72438;BME280;60444;43.534;-5.674;2023-01-08T09:49:25;100737.44;;;11.84;100.00
72438;BME280;60444;43.534;-5.674;2023-01-08T09:51:53;100715.84;;;11.83;100.00
72438;BME280;60444;43.534;-5.674;2023-01-08T09:54:22;100721.81;;;11.89;100.00
72438;BME280;60444;43.534;-5.674;2023-01-08T09:56:52;100711.31;;;11.83;100.00
72438;BME280;60444;43.534;-5.674;2023-01-08T09:59:18;100724.53;;;11.89;100.00
72438;BME280;60444;43.534;-5.674;2023-01-08T10:01:44;100727.66;;;11.97;100.00
72438;BME280;60444;43.534;-5.674;2023-01-08T10:06:39;100732.16;;;11.98;100.00
72438;BME280;60444;43.534;-5.674;2023-01-08T10:09:05;100726.38;;;12.04;100.00
72438;BME280;60444;43.534;-5.674;2023-01-08T10:11:39;100710.28;;;12.01;100.00
72438;BME280;60444;43.534;-5.674;2023-01-08T10:14:16;100731.63;;;12.07;100.00
72438;BME280;60444;43.534;-5.674;2023-01-08T10:16:53;100733.78;;;12.01;100.00
72438;BME280;60444;43.534;-5.674;2023-01-08T10:19:21;100740.09;;;12.01;100.00
72438;BME280;60444;43.534;-5.674;2023-01-08T10:21:47;100742.47;;;12.07;100.00
72438;BME280;60444;43.534;-5.674;2023-01-08T10:24:12;100744.81;;;12.13;100.00
72438;BME280;60444;43.534;-5.674;2023-01-08T10:26:38;100727.44;;;12.02;100.00
72438;BME280;60444;43.534;-5.674;2023-01-08T10:29:17;100751.66;;;12.20;100.00
72438;BME280;60444;43.534;-5.674;2023-01-08T10:31:51;100769.69;;;12.21;100.00
72438;BME280;60444;43.534;-5.674;2023-01-08T10:34:31;100766.78;;;12.24;100.00
72438;BME280;60444;43.534;-5.674;2023-01-08T10:37:58;100750.09;;;12.16;100.00
72438;BME280;60444;43.534;-5.674;2023-01-08T10:42:42;100764.78;;;12.28;100.00
72438;BME280;60444;43.534;-5.674;2023-01-08T10:45:19;100760.06;;;12.31;100.00
72438;BME280;60444;43.534;-5.674;2023-01-08T10:47:46;100742.22;;;12.27;100.00
72438;BME280;60444;43.534;-5.674;2023-01-08T10:50:23;100751.91;;;12.31;100.00
72438;BME280;60444;43.534;-5.674;2023-01-08T10:52:58;100761.28;;;12.41;100.00
72438;BME280;60444;43.534;-5.674;2023-01-08T10:55:34;100761.91;;;12.46;100.00
72438;BME280;60444;43.534;-5.674;2023-01-08T11:00:35;100765.22;;;12.51;100.00
72438;BME280;60444;43.534;-5.674;2023-01-08T11:03:04;100766.97;;;12.52;100.00
72438;BME280;60444;43.534;-5.674;2023-01-08T11:05:36;100770.50;;;12.55;100.00
72438;BME280;60444;43.534;-5.674;2023-01-08T11:08:05;100774.75;;;12.59;100.00
72438;BME280;60444;43.534;-5.674;2023-01-08T11:10:33;100783.59;;;12.62;100.00
72438;BME280;60444;43.534;-5.674;2023-01-08T11:13:05;100780.97;;;12.61;100.00
72438;BME280;60444;43.534;-5.674;2023-01-08T11:15:40;100770.81;;;12.64;100.00
72438;BME280;60444;43.534;-5.674;2023-01-08T11:20:38;100780.44;;;12.70;100.00
72438;BME280;60444;43.534;-5.674;2023-01-08T11:23:25;100779.53;;;12.69;100.00
72438;BME280;60444;43.534;-5.674;2023-01-08T11:26:06;100802.59;;;12.78;100.00
72438;BME280;60444;43.534;-5.674;2023-01-08T11:31:12;100804.16;;;12.82;100.00
72438;BME280;60444;43.534;-5.674;2023-01-08T11:33:43;100800.38;;;12.84;100.00
72438;BME280;60444;43.534;-5.674;2023-01-08T11:36:19;100807.78;;;12.96;100.00
72438;BME280;60444;43.534;-5.674;2023-01-08T11:38:48;100779.44;;;12.86;100.00
72438;BME280;60444;43.534;-5.674;2023-01-08T11:58:12;100787.03;;;13.40;100.00
72438;BME280;60444;43.534;-5.674;2023-01-08T12:01:06;100772.41;;;13.43;100.00
72438;BME280;60444;43.534;-5.674;2023-01-08T12:03:43;100772.69;;;13.52;100.00
72438;BME280;60444;43.534;-5.674;2023-01-08T12:06:33;100758.25;;;13.52;100.00
72438;BME280;60444;43.534;-5.674;2023-01-08T12:14:39;100774.59;;;13.80;100.00
72438;BME280;60444;43.534;-5.674;2023-01-08T12:20:24;100770.28;;;13.90;100.00
72438;BME280;60444;43.534;-5.674;2023-01-08T12:23:14;100774.47;;;13.96;100.00
72438;BME280;60444;43.534;-5.674;2023-01-08T12:25:59;100759.25;;;13.93;100.00
72438;BME280;60444;43.534;-5.674;2023-01-08T12:28:54;100769.53;;;14.02;100.00
72438;BME280;60444;43.534;-5.674;2023-01-08T12:34:45;100765.16;;;14.00;100.00
72438;BME280;60444;43.534;-5.674;2023-01-08T12:37:22;100761.75;;;13.96;100.00
72438;BME280;60444;43.534;-5.674;2023-01-08T12:39:57;100761.66;;;13.98;100.00
72438;BME280;60444;43.534;-5.674;2023-01-08T12:42:29;100773.22;;;14.01;100.00
72438;BME280;60444;43.534;-5.674;2023-01-08T12:44:58;100781.47;;;14.00;100.00
72438;BME280;60444;43.534;-5.674;2023-01-08T12:47:28;100755.75;;;13.77;100.00
72438;BME280;60444;43.534;-5.674;2023-01-08T12:50:07;100765.84;;;13.89;100.00
72438;BME280;60444;43.534;-5.674;2023-01-08T12:52:44;100768.84;;;13.85;100.00
72438;BME280;60444;43.534;-5.674;2023-01-08T12:57:59;100779.13;;;13.80;100.00
72438;BME280;60444;43.534;-5.674;2023-01-08T13:00:43;100789.75;;;13.84;100.00
72438;BME280;60444;43.534;-5.674;2023-01-08T13:03:20;100773.91;;;13.77;100.00
72438;BME280;60444;43.534;-5.674;2023-01-08T13:05:46;100772.84;;;13.79;100.00
72438;BME280;60444;43.534;-5.674;2023-01-08T13:08:32;100780.69;;;13.84;100.00
72438;BME280;60444;43.534;-5.674;2023-01-08T13:10:59;100778.28;;;13.79;100.00
72438;BME280;60444;43.534;-5.674;2023-01-08T13:18:36;100783.53;;;13.82;100.00
72438;BME280;60444;43.534;-5.674;2023-01-08T13:21:03;100768.09;;;13.83;100.00
72438;BME280;60444;43.534;-5.674;2023-01-08T13:23:31;100777.88;;;13.85;100.00
72438;BME280;60444;43.534;-5.674;2023-01-08T13:26:01;100752.25;;;13.75;100.00
72438;BME280;60444;43.534;-5.674;2023-01-08T13:28:44;100761.88;;;13.81;100.00
72438;BME280;60444;43.534;-5.674;2023-01-08T13:33:44;100751.69;;;13.84;100.00
72438;BME280;60444;43.534;-5.674;2023-01-08T13:38:41;100765.47;;;13.95;100.00
72438;BME280;60444;43.534;-5.674;2023-01-08T13:41:25;100759.25;;;13.93;100.00
72438;BME280;60444;43.534;-5.674;2023-01-08T13:46:29;100773.22;;;14.01;100.00
72438;BME280;60444;43.534;-5.674;2023-01-08T13:49:02;100779.16;;;14.08;100.00
72438;BME280;60444;43.534;-5.674;2023-01-08T13:51:41;100786.13;;;14.12;100.00
72438;BME280;60444;43.534;-5.674;2023-01-08T13:56:40;100779.84;;;14.11;100.00